createdAt,value
2022-10-30T00:01:32.379Z,13.70
2022-10-30T00:03:58.610Z,14.40
2022-10-30T00:06:24.899Z,13.40
2022-10-30T00:08:51.147Z,13.53
2022-10-30T00:11:17.352Z,13.27
2022-10-30T00:13:44.683Z,13.70
2022-10-30T00:16:10.994Z,14.17
2022-10-30T00:18:38.554Z,13.37
2022-10-30T00:21:09.302Z,13.33
2022-10-30T00:23:35.741Z,14.47
2022-10-30T00:26:02.665Z,14.47
2022-10-30T00:28:28.874Z,14.20
2022-10-30T00:30:58.133Z,13.80
2022-10-30T00:33:24.351Z,13.43
2022-10-30T00:35:50.566Z,14.03
2022-10-30T00:38:16.865Z,13.57
2022-10-30T00:40:43.078Z,14.20
2022-10-30T00:43:28.150Z,14.17
2022-10-30T00:45:54.786Z,14.00
2022-10-30T00:48:23.299Z,14.60
2022-10-30T00:50:49.599Z,14.77
2022-10-30T00:53:17.497Z,13.93
2022-10-30T00:55:52.506Z,13.70
2022-10-30T00:58:20.764Z,15.23
2022-10-30T01:00:50.818Z,15.17
2022-10-30T01:03:17.953Z,14.23
2022-10-30T01:05:45.572Z,15.10
2022-10-30T01:08:11.815Z,15.83
2022-10-30T01:10:38.974Z,15.30
2022-10-30T01:13:05.282Z,15.60
2022-10-30T01:15:35.722Z,15.47
2022-10-30T01:18:13.318Z,15.53
2022-10-30T01:20:39.510Z,15.77
2022-10-30T01:23:11.893Z,15.73
2022-10-30T01:25:47.474Z,14.80
2022-10-30T01:28:32.092Z,16.10
2022-10-30T01:31:21.564Z,16.10
2022-10-30T01:34:07.290Z,15.33
2022-10-30T01:36:37.309Z,16.50
2022-10-30T01:39:07.478Z,15.83
2022-10-30T01:41:33.690Z,15.87
2022-10-30T01:44:02.473Z,15.63
2022-10-30T01:46:34.137Z,16.17
2022-10-30T01:49:15.498Z,16.37
2022-10-30T01:52:04.906Z,16.17
2022-10-30T01:54:49.900Z,16.13
2022-10-30T01:57:21.427Z,15.53
2022-10-30T01:59:50.630Z,16.37
2022-10-30T02:02:16.984Z,15.90
2022-10-30T02:04:43.642Z,16.33
2022-10-30T02:07:11.367Z,16.10
2022-10-30T02:09:38.107Z,15.80
2022-10-30T02:12:04.403Z,15.63
2022-10-30T02:14:33.016Z,15.37
2022-10-30T02:17:00.743Z,16.20
2022-10-30T02:19:26.966Z,15.73
2022-10-30T02:21:53.261Z,15.20
2022-10-30T02:24:19.486Z,15.80
2022-10-30T02:26:45.713Z,15.53
2022-10-30T02:29:12.055Z,14.97
2022-10-30T02:31:38.417Z,15.17
2022-10-30T02:34:04.685Z,15.17
2022-10-30T02:36:30.906Z,15.00
2022-10-30T02:38:57.239Z,14.60
2022-10-30T02:41:23.858Z,15.10
2022-10-30T02:43:53.575Z,15.13
2022-10-30T02:46:20.062Z,14.57
2022-10-30T02:48:46.356Z,14.43
2022-10-30T02:51:12.570Z,14.23
2022-10-30T02:53:38.834Z,13.67
2022-10-30T02:56:05.844Z,15.13
2022-10-30T02:58:32.082Z,14.33
2022-10-30T03:00:58.408Z,14.50
2022-10-30T03:03:24.658Z,14.57
2022-10-30T03:05:50.876Z,14.03
2022-10-30T03:08:17.109Z,13.80
2022-10-30T03:10:43.317Z,14.60
2022-10-30T03:13:09.578Z,14.37
2022-10-30T03:15:35.811Z,14.77
2022-10-30T03:18:02.020Z,14.00
2022-10-30T03:20:28.222Z,13.37
2022-10-30T03:22:54.479Z,13.73
2022-10-30T03:25:23.761Z,14.57
2022-10-30T03:27:50.427Z,14.30
2022-10-30T03:30:16.675Z,14.03
2022-10-30T03:32:42.891Z,14.53
2022-10-30T03:35:09.126Z,14.07
2022-10-30T03:37:35.398Z,14.47
2022-10-30T03:40:01.599Z,13.67
2022-10-30T03:42:27.813Z,14.10
2022-10-30T03:44:54.013Z,13.87
2022-10-30T03:47:20.287Z,14.30
2022-10-30T03:49:46.489Z,14.27
2022-10-30T03:52:12.739Z,13.53
2022-10-30T03:54:38.945Z,14.03
2022-10-30T03:57:05.141Z,13.23
2022-10-30T03:59:31.375Z,13.23
2022-10-30T04:01:57.901Z,13.33
2022-10-30T04:04:24.331Z,14.03
2022-10-30T04:06:50.533Z,13.93
2022-10-30T04:09:16.764Z,14.30
2022-10-30T04:11:43.756Z,14.07
2022-10-30T04:14:09.994Z,13.90
2022-10-30T04:16:36.210Z,14.53
2022-10-30T04:19:02.426Z,13.60
2022-10-30T04:21:28.649Z,12.70
2022-10-30T04:23:54.867Z,13.33
2022-10-30T04:26:21.079Z,13.70
2022-10-30T04:28:47.842Z,13.47
2022-10-30T04:31:14.163Z,13.40
2022-10-30T04:33:40.396Z,13.37
2022-10-30T04:36:06.894Z,13.10
2022-10-30T04:38:33.137Z,13.63
2022-10-30T04:40:59.355Z,13.33
2022-10-30T04:43:25.576Z,13.00
2022-10-30T04:45:51.858Z,13.57
2022-10-30T04:48:18.402Z,13.50
2022-10-30T04:50:44.836Z,13.33
2022-10-30T04:53:15.252Z,13.73
2022-10-30T04:55:41.866Z,13.90
2022-10-30T04:58:09.335Z,12.87
2022-10-30T05:00:35.903Z,13.17
2022-10-30T05:03:02.614Z,13.67
2022-10-30T05:05:30.437Z,13.73
2022-10-30T05:07:57.127Z,13.37
2022-10-30T05:10:23.645Z,13.47
2022-10-30T05:12:52.088Z,12.87
2022-10-30T05:15:18.412Z,14.93
2022-10-30T05:17:44.641Z,13.30
2022-10-30T05:20:14.751Z,13.07
2022-10-30T05:22:42.643Z,13.67
2022-10-30T05:25:08.928Z,13.97
2022-10-30T05:27:35.121Z,13.20
2022-10-30T05:30:01.487Z,13.13
2022-10-30T05:32:27.698Z,13.40
2022-10-30T05:34:53.908Z,13.63
2022-10-30T05:37:20.122Z,14.23
2022-10-30T05:39:46.334Z,13.70
2022-10-30T05:42:13.808Z,13.33
2022-10-30T05:44:59.668Z,13.90
2022-10-30T05:47:26.561Z,13.40
2022-10-30T05:49:52.779Z,12.77
2022-10-30T05:52:19.003Z,13.37
2022-10-30T05:54:45.226Z,13.57
2022-10-30T05:57:11.461Z,13.30
2022-10-30T05:59:37.696Z,12.90
2022-10-30T06:02:03.986Z,12.97
2022-10-30T06:04:30.240Z,13.93
2022-10-30T06:06:56.449Z,13.03
2022-10-30T06:09:22.720Z,11.93
2022-10-30T06:11:49.001Z,12.87
2022-10-30T06:14:15.212Z,12.40
2022-10-30T06:16:41.442Z,12.43
2022-10-30T06:19:07.716Z,11.77
2022-10-30T06:21:33.944Z,11.50
2022-10-30T06:24:00.161Z,11.93
2022-10-30T06:26:26.390Z,12.03
2022-10-30T06:28:52.727Z,11.50
2022-10-30T06:33:50.173Z,11.47
2022-10-30T06:36:17.517Z,12.63
2022-10-30T06:38:43.765Z,11.73
2022-10-30T06:41:09.973Z,10.77
2022-10-30T06:43:36.255Z,12.27
2022-10-30T06:46:02.549Z,10.97
2022-10-30T06:48:28.893Z,11.27
2022-10-30T06:50:58.853Z,11.60
2022-10-30T06:53:25.485Z,12.30
2022-10-30T06:55:58.915Z,11.20
2022-10-30T06:58:25.756Z,11.80
2022-10-30T07:00:52.182Z,11.73
2022-10-30T07:03:18.446Z,10.60
2022-10-30T07:05:44.760Z,11.23
2022-10-30T07:08:10.979Z,10.80
2022-10-30T07:10:37.264Z,11.63
2022-10-30T07:13:03.714Z,11.20
2022-10-30T07:15:30.076Z,10.73
2022-10-30T07:17:57.862Z,10.63
2022-10-30T07:20:25.119Z,10.50
2022-10-30T07:22:51.428Z,10.90
2022-10-30T07:25:18.171Z,10.63
2022-10-30T07:27:45.304Z,10.90
2022-10-30T07:30:16.209Z,10.70
2022-10-30T07:32:42.563Z,10.90
2022-10-30T07:35:09.558Z,10.60
2022-10-30T07:37:35.879Z,11.33
2022-10-30T07:40:02.102Z,10.50
2022-10-30T07:42:28.308Z,10.93
2022-10-30T07:44:54.553Z,10.73
2022-10-30T07:47:20.845Z,10.87
2022-10-30T07:49:47.057Z,10.80
2022-10-30T07:52:17.198Z,10.23
2022-10-30T07:54:43.786Z,10.53
2022-10-30T07:57:09.990Z,11.03
2022-10-30T07:59:36.289Z,10.53
2022-10-30T08:02:02.682Z,10.07
2022-10-30T08:04:28.993Z,10.43
2022-10-30T08:06:55.244Z,9.80
2022-10-30T08:09:21.451Z,10.70
2022-10-30T08:11:47.731Z,9.47
2022-10-30T08:14:13.977Z,10.00
2022-10-30T08:16:40.195Z,10.13
2022-10-30T08:19:06.463Z,10.00
2022-10-30T08:21:32.746Z,9.60
2022-10-30T08:23:59.017Z,9.90
2022-10-30T08:26:25.227Z,9.93
2022-10-30T08:28:51.463Z,9.67
2022-10-30T08:31:18.703Z,9.77
2022-10-30T08:33:44.929Z,8.63
2022-10-30T08:36:11.149Z,9.67
2022-10-30T08:38:37.385Z,8.40
2022-10-30T08:41:03.596Z,8.83
2022-10-30T08:43:29.880Z,8.67
2022-10-30T08:45:57.561Z,8.83
2022-10-30T08:48:23.790Z,8.80
2022-10-30T08:50:49.988Z,7.10
2022-10-30T08:53:16.275Z,7.50
2022-10-30T08:55:42.758Z,7.83
2022-10-30T08:58:09.045Z,7.93
2022-10-30T09:00:35.638Z,7.67
2022-10-30T09:03:02.346Z,7.43
2022-10-30T09:05:28.996Z,8.23
2022-10-30T09:07:55.920Z,7.30
2022-10-30T09:10:22.245Z,7.30
2022-10-30T09:12:48.453Z,7.80
2022-10-30T09:15:14.787Z,7.53
2022-10-30T09:17:40.998Z,7.30
2022-10-30T09:20:07.390Z,6.73
2022-10-30T09:22:33.619Z,7.00
2022-10-30T09:24:59.827Z,6.77
2022-10-30T09:27:27.491Z,6.23
2022-10-30T09:29:53.748Z,6.53
2022-10-30T09:32:21.005Z,6.33
2022-10-30T09:34:47.351Z,6.20
2022-10-30T09:37:13.575Z,6.97
2022-10-30T09:39:39.823Z,6.30
2022-10-30T09:42:24.732Z,6.50
2022-10-30T09:47:53.449Z,6.27
2022-10-30T09:50:29.412Z,5.77
2022-10-30T09:53:02.065Z,5.70
2022-10-30T09:55:31.701Z,6.40
2022-10-30T09:58:01.095Z,6.23
2022-10-30T10:00:47.621Z,5.40
2022-10-30T10:03:21.521Z,6.07
2022-10-30T10:05:52.759Z,5.70
2022-10-30T10:08:20.845Z,5.73
2022-10-30T10:10:51.266Z,5.60
2022-10-30T10:13:29.385Z,5.87
2022-10-30T10:16:15.977Z,5.50
2022-10-30T10:18:51.529Z,5.90
2022-10-30T10:21:27.971Z,5.20
2022-10-30T10:24:01.479Z,5.03
2022-10-30T10:26:35.918Z,4.83
2022-10-30T10:29:14.474Z,5.27
2022-10-30T10:31:40.754Z,5.23
2022-10-30T10:34:16.129Z,5.50
2022-10-30T10:36:46.302Z,5.43
2022-10-30T10:39:18.481Z,5.33
2022-10-30T10:41:52.632Z,5.33
2022-10-30T10:44:52.566Z,4.70
2022-10-30T10:47:32.309Z,5.47
2022-10-30T10:50:15.981Z,5.27
2022-10-30T10:52:51.517Z,5.70
2022-10-30T10:55:19.425Z,5.57
2022-10-30T10:57:46.721Z,5.53
2022-10-30T11:00:16.355Z,5.80
2022-10-30T11:02:59.088Z,5.20
2022-10-30T11:05:44.187Z,5.60
2022-10-30T11:08:13.376Z,5.27
2022-10-30T11:10:40.049Z,5.80
2022-10-30T11:13:06.554Z,5.30
2022-10-30T11:15:39.552Z,5.23
2022-10-30T11:20:57.105Z,5.13
2022-10-30T11:23:30.127Z,5.20
2022-10-30T11:25:57.403Z,5.17
2022-10-30T11:28:31.997Z,5.43
2022-10-30T11:31:17.100Z,5.10
2022-10-30T11:33:43.338Z,4.93
2022-10-30T11:36:15.517Z,4.97
2022-10-30T11:38:42.282Z,5.37
2022-10-30T11:41:10.460Z,5.47
2022-10-30T11:43:37.656Z,5.00
2022-10-30T11:46:09.140Z,4.60
2022-10-30T11:48:37.696Z,5.00
2022-10-30T11:51:04.369Z,5.70
2022-10-30T11:53:36.489Z,4.77
2022-10-30T11:56:04.266Z,5.00
2022-10-30T11:58:32.462Z,5.03
2022-10-30T12:01:34.228Z,5.50
2022-10-30T12:04:22.177Z,5.27
2022-10-30T12:06:49.457Z,5.10
2022-10-30T12:09:22.070Z,5.37
2022-10-30T12:11:49.048Z,5.27
2022-10-30T12:14:22.368Z,5.20
2022-10-30T12:16:49.997Z,5.13
2022-10-30T12:19:16.724Z,4.87
2022-10-30T12:21:47.335Z,5.00
2022-10-30T12:24:34.065Z,5.10
2022-10-30T12:27:04.526Z,4.80
2022-10-30T12:30:13.509Z,5.50
2022-10-30T12:32:51.450Z,5.07
2022-10-30T12:35:36.217Z,5.17
2022-10-30T12:38:04.335Z,4.73
2022-10-30T12:40:31.574Z,4.67
2022-10-30T12:43:05.190Z,5.27
2022-10-30T12:45:34.536Z,5.37
2022-10-30T12:48:04.131Z,4.73
2022-10-30T12:50:37.440Z,5.07
2022-10-30T12:53:18.675Z,5.33
2022-10-30T12:55:49.863Z,5.10
2022-10-30T12:58:25.403Z,4.87
2022-10-30T13:00:59.518Z,5.30
2022-10-30T13:03:31.162Z,4.87
2022-10-30T13:06:00.487Z,4.93
2022-10-30T13:08:32.716Z,4.80
2022-10-30T13:11:17.455Z,5.47
2022-10-30T13:13:46.921Z,5.10
2022-10-30T13:16:16.522Z,5.70
2022-10-30T13:18:42.808Z,4.97
2022-10-30T13:21:28.388Z,4.77
2022-10-30T13:24:00.583Z,5.10
2022-10-30T13:26:39.730Z,4.77
2022-10-30T13:29:22.487Z,4.80
2022-10-30T13:31:54.951Z,4.87
2022-10-30T13:34:59.798Z,4.87
2022-10-30T13:37:28.877Z,5.10
2022-10-30T13:40:03.946Z,4.70
2022-10-30T13:42:41.248Z,4.70
2022-10-30T13:45:07.596Z,5.00
2022-10-30T13:47:42.751Z,4.87
2022-10-30T13:50:09.013Z,4.97
2022-10-30T13:52:36.936Z,4.87
2022-10-30T13:55:19.244Z,5.13
2022-10-30T13:57:49.948Z,4.90
2022-10-30T14:00:29.364Z,4.90
2022-10-30T14:03:11.482Z,4.47
2022-10-30T14:05:49.749Z,4.77
2022-10-30T14:08:33.131Z,4.83
2022-10-30T14:11:00.902Z,4.90
2022-10-30T14:13:45.045Z,5.03
2022-10-30T14:16:31.633Z,4.77
2022-10-30T14:19:01.921Z,5.00
2022-10-30T14:21:37.608Z,5.27
2022-10-30T14:24:22.485Z,5.53
2022-10-30T14:27:09.267Z,5.23
2022-10-30T14:29:35.690Z,5.03
2022-10-30T14:32:02.862Z,5.47
2022-10-30T14:34:45.442Z,4.23
2022-10-30T14:37:12.477Z,5.47
2022-10-30T14:39:42.675Z,5.17
2022-10-30T14:42:11.732Z,5.20
2022-10-30T14:44:44.954Z,5.07
2022-10-30T14:47:14.217Z,4.90
2022-10-30T14:49:44.574Z,5.00
2022-10-30T14:52:23.566Z,5.03
2022-10-30T14:55:05.498Z,5.90
2022-10-30T14:57:47.691Z,5.33
2022-10-30T15:00:23.075Z,5.57
2022-10-30T15:02:58.141Z,5.70
2022-10-30T15:05:37.216Z,5.07
2022-10-30T15:08:27.935Z,5.30
2022-10-30T15:11:15.309Z,6.57
2022-10-30T15:13:48.212Z,6.50
2022-10-30T15:16:15.539Z,5.80
2022-10-30T15:18:44.757Z,7.03
2022-10-30T15:21:18.548Z,5.87
2022-10-30T15:23:44.789Z,7.37
2022-10-30T15:26:19.278Z,5.80
2022-10-30T15:28:49.461Z,6.30
2022-10-30T15:31:18.554Z,6.23
2022-10-30T15:33:45.086Z,5.73
2022-10-30T15:36:17.147Z,6.03
2022-10-30T15:38:43.534Z,7.27
2022-10-30T15:41:09.806Z,5.60
2022-10-30T15:43:38.306Z,6.17
2022-10-30T15:46:10.636Z,6.33
2022-10-30T15:48:39.222Z,6.47
2022-10-30T15:51:05.513Z,6.37
2022-10-30T15:53:38.040Z,7.07
2022-10-30T15:56:05.392Z,6.40
2022-10-30T15:58:32.002Z,6.97
2022-10-30T16:00:59.241Z,6.63
2022-10-30T16:03:25.958Z,6.80
2022-10-30T16:06:02.976Z,7.37
2022-10-30T16:08:29.227Z,6.60
2022-10-30T16:10:55.865Z,6.80
2022-10-30T16:13:23.606Z,7.50
2022-10-30T16:15:50.228Z,7.07
2022-10-30T16:18:18.754Z,8.30
2022-10-30T16:20:48.045Z,7.10
2022-10-30T16:23:14.608Z,7.73
2022-10-30T16:25:46.750Z,7.47
2022-10-30T16:28:23.839Z,7.60
2022-10-30T16:30:50.283Z,8.07
2022-10-30T16:33:18.006Z,8.00
2022-10-30T16:35:55.553Z,8.80
2022-10-30T16:38:22.934Z,8.10
2022-10-30T16:40:49.226Z,8.40
2022-10-30T16:43:25.921Z,9.00
2022-10-30T16:45:52.447Z,8.80
2022-10-30T16:48:27.497Z,9.10
2022-10-30T16:51:00.933Z,8.93
2022-10-30T16:53:28.348Z,9.13
2022-10-30T16:55:55.456Z,9.27
2022-10-30T16:58:23.651Z,10.57
2022-10-30T17:00:57.540Z,10.23
2022-10-30T17:03:26.937Z,10.77
2022-10-30T17:05:57.447Z,10.63
2022-10-30T17:08:27.464Z,10.10
2022-10-30T17:10:58.814Z,10.70
2022-10-30T17:13:34.446Z,10.47
2022-10-30T17:16:13.881Z,11.03
2022-10-30T17:18:40.102Z,10.43
2022-10-30T17:21:08.144Z,10.37
2022-10-30T17:23:34.670Z,11.10
2022-10-30T17:26:07.664Z,10.30
2022-10-30T17:28:34.700Z,10.03
2022-10-30T17:31:20.469Z,10.07
2022-10-30T17:33:47.374Z,9.90
2022-10-30T17:36:13.917Z,10.83
2022-10-30T17:38:40.307Z,11.57
2022-10-30T17:41:08.195Z,11.27
2022-10-30T17:43:46.583Z,10.80
2022-10-30T17:46:19.120Z,10.53
2022-10-30T17:48:46.918Z,11.20
2022-10-30T17:51:13.624Z,11.30
2022-10-30T17:53:40.280Z,10.70
2022-10-30T17:56:11.088Z,10.77
2022-10-30T17:58:37.281Z,11.23
2022-10-30T18:01:03.656Z,10.67
2022-10-30T18:03:29.943Z,11.60
2022-10-30T18:05:56.410Z,11.10
2022-10-30T18:08:22.951Z,10.40
2022-10-30T18:10:49.211Z,10.53
2022-10-30T18:13:15.914Z,10.73
2022-10-30T18:15:43.838Z,11.50
2022-10-30T18:18:10.079Z,11.63
2022-10-30T18:20:36.629Z,11.97
2022-10-30T18:23:03.650Z,12.13
2022-10-30T18:25:34.655Z,11.40
2022-10-30T18:28:00.925Z,11.87
2022-10-30T18:30:29.040Z,11.77
2022-10-30T18:32:55.972Z,11.23
2022-10-30T18:35:26.036Z,11.90
2022-10-30T18:37:52.523Z,12.70
2022-10-30T18:40:21.829Z,13.03
2022-10-30T18:42:48.960Z,12.63
2022-10-30T18:45:28.404Z,12.67
2022-10-30T18:47:55.330Z,12.17
2022-10-30T18:50:23.120Z,12.30
2022-10-30T18:52:49.521Z,12.37
2022-10-30T18:55:20.785Z,12.27
2022-10-30T18:57:47.483Z,12.77
2022-10-30T19:00:15.462Z,13.00
2022-10-30T19:02:42.175Z,12.40
2022-10-30T19:05:28.136Z,12.90
2022-10-30T19:07:54.595Z,13.27
2022-10-30T19:10:20.834Z,13.23
2022-10-30T19:13:10.807Z,12.93
2022-10-30T19:15:35.062Z,12.37
2022-10-30T19:18:02.275Z,11.97
2022-10-30T19:20:44.052Z,12.90
2022-10-30T19:23:17.234Z,12.43
2022-10-30T19:25:44.452Z,12.57
2022-10-30T19:28:14.193Z,13.03
2022-10-30T19:30:40.991Z,13.23
2022-10-30T19:33:07.277Z,13.80
2022-10-30T19:35:33.491Z,13.67
2022-10-30T19:38:00.157Z,14.33
2022-10-30T19:40:32.267Z,13.67
2022-10-30T19:42:59.032Z,13.43
2022-10-30T19:45:26.522Z,13.13
2022-10-30T19:47:54.039Z,13.90
2022-10-30T19:50:27.797Z,14.07
2022-10-30T19:52:55.230Z,14.43
2022-10-30T19:55:21.949Z,14.60
2022-10-30T19:57:48.597Z,14.23
2022-10-30T20:00:15.100Z,14.17
2022-10-30T20:02:41.481Z,15.20
2022-10-30T20:05:10.122Z,14.43
2022-10-30T20:07:36.331Z,15.70
2022-10-30T20:10:02.620Z,16.63
2022-10-30T20:12:28.922Z,16.70
2022-10-30T20:14:55.133Z,17.77
2022-10-30T20:17:21.353Z,15.30
2022-10-30T20:19:47.569Z,15.30
2022-10-30T20:22:13.780Z,14.27
2022-10-30T20:24:40.063Z,13.27
2022-10-30T20:27:06.304Z,13.57
2022-10-30T20:29:33.417Z,14.10
2022-10-30T20:31:59.625Z,14.40
2022-10-30T20:34:25.847Z,15.53
2022-10-30T20:36:52.050Z,15.17
2022-10-30T20:39:18.361Z,16.10
2022-10-30T20:41:44.956Z,15.27
2022-10-30T20:44:12.381Z,14.70
2022-10-30T20:46:39.369Z,15.33
2022-10-30T20:49:16.970Z,15.77
2022-10-30T20:51:44.548Z,15.17
2022-10-30T20:54:11.114Z,15.23
2022-10-30T20:56:37.318Z,15.93
2022-10-30T20:59:03.613Z,15.87
2022-10-30T21:01:30.046Z,15.63
2022-10-30T21:04:00.675Z,15.73
2022-10-30T21:06:28.299Z,16.03
2022-10-30T21:08:54.547Z,16.80
2022-10-30T21:11:20.767Z,16.17
2022-10-30T21:13:47.019Z,16.40
2022-10-30T21:16:13.324Z,16.17
2022-10-30T21:18:39.554Z,15.93
2022-10-30T21:21:07.198Z,16.13
2022-10-30T21:23:33.438Z,16.83
2022-10-30T21:26:00.759Z,17.50
2022-10-30T21:28:26.980Z,17.47
2022-10-30T21:30:53.544Z,17.87
2022-10-30T21:33:20.434Z,16.07
2022-10-30T21:35:47.033Z,16.53
2022-10-30T21:38:13.883Z,16.70
2022-10-30T21:40:40.458Z,16.67
2022-10-30T21:43:07.610Z,18.20
2022-10-30T21:45:34.855Z,16.00
2022-10-30T21:48:01.643Z,16.73
2022-10-30T21:50:28.248Z,16.93
2022-10-30T21:52:55.331Z,16.47
2022-10-30T21:55:21.671Z,17.20
2022-10-30T21:57:48.428Z,17.10
2022-10-30T22:00:15.142Z,16.37
2022-10-30T22:02:42.085Z,17.33
2022-10-30T22:05:09.446Z,17.53
2022-10-30T22:07:36.376Z,16.57
2022-10-30T22:10:04.183Z,17.50
2022-10-30T22:12:31.382Z,16.07
2022-10-30T22:14:58.679Z,16.33
2022-10-30T22:17:28.241Z,16.20
2022-10-30T22:19:55.954Z,16.33
2022-10-30T22:22:22.910Z,15.70
2022-10-30T22:24:50.353Z,14.90
2022-10-30T22:27:16.614Z,15.83
2022-10-30T22:29:43.935Z,15.23
2022-10-30T22:32:11.048Z,15.27
2022-10-30T22:34:37.692Z,15.40
2022-10-30T22:37:04.245Z,15.90
2022-10-30T22:39:31.474Z,15.37
2022-10-30T22:41:58.392Z,15.23
2022-10-30T22:44:25.569Z,15.30
2022-10-30T22:46:53.079Z,15.57
2022-10-30T22:49:20.154Z,15.27
2022-10-30T22:51:47.165Z,15.73
2022-10-30T22:54:13.966Z,15.97
2022-10-30T22:56:42.355Z,14.90
2022-10-30T22:59:13.268Z,14.63
2022-10-30T23:01:40.896Z,13.97
2022-10-30T23:04:10.432Z,14.20
2022-10-30T23:06:37.589Z,14.63
2022-10-30T23:09:06.428Z,14.63
2022-10-30T23:11:33.247Z,15.10
2022-10-30T23:13:59.495Z,14.97
2022-10-30T23:16:26.191Z,14.60
2022-10-30T23:18:54.102Z,15.27
2022-10-30T23:21:21.447Z,14.97
2022-10-30T23:23:48.139Z,15.43
2022-10-30T23:26:15.771Z,14.50
2022-10-30T23:28:42.247Z,14.73
2022-10-30T23:31:44.162Z,16.10
2022-10-30T23:34:12.149Z,14.90
2022-10-30T23:36:38.418Z,14.77
2022-10-30T23:39:09.454Z,15.60
2022-10-30T23:41:35.697Z,14.83
2022-10-30T23:44:02.921Z,15.47
2022-10-30T23:46:29.143Z,14.83
2022-10-30T23:48:55.455Z,14.00
2022-10-30T23:51:22.045Z,15.17
2022-10-30T23:53:48.548Z,14.67
2022-10-30T23:56:15.147Z,14.57
2022-10-30T23:58:45.042Z,14.23
